Strona główna
METAR-TAF:

METAR-TAF

Lotnisko :

Port lotniczy Exeter

Exeter, Anglia

Szerokość geograficzna: 50-44N, Długość geograficzna: 003-25W, wysokość: 30 m

Aktualna obserwacja pogody

Raport powstał 2 godziny i 31 minut temu, godzina 01:50 UTC
Wiatr 4 kt od północny zachód
Temperatura 11°C
Wilgotność 94%
Ciśnienie 1022 hPa
Widzialność 10 km lub więcej
Brak chmur poniżej 1500 m i brak chmur cumulonimbus

METAR: EGTE 150150Z 32004KT CAVOK 11/10 Q1022

czas: 05:21 (04:21 UTC)

Prognoza

Raport powstał 5 godziny i 25 minut temu, godzina 22:56 UTC
Prognoza ważna od 15 godzina 00 UTC do 15 godzina 04 UTC
Wiatr 6 kt od północny zachód
Widzialność 10 km lub więcej
Brak chmur poniżej 1500 m i brak chmur cumulonimbus

TAF: EGTE 142256Z 1500/1504 32006KT CAVOK

Obserwacja i prognoza pogody dla ponad 4000 lotnisk (raport METAR i TAF).

Dostępne stacje oznaczono żółtymi i czerwonymi punktami na mapie.

Najedź kursorem aby zobaczyć nazwę stacji.

Kliknij aby zobaczyć obserwacje i prognozy pogody.

Aby zmienić mapę: kliknij na zielony przycisk z czarnym krzyżykiem, aby powiększyć; na zielony przycisk z myślnikiem, aby pomniejszyć; na zielone strzałki, aby przejść do map sąsiednich.


METAR-TAF: